createdAt,value
2023-11-30T00:00:51.406Z,58.50
2023-11-30T00:04:02.656Z,60.60
2023-11-30T00:07:13.812Z,61.50
2023-11-30T00:10:33.326Z,58.40
2023-11-30T00:14:03.229Z,59.50
2023-11-30T00:17:04.923Z,62.90
2023-11-30T00:20:19.227Z,60.80
2023-11-30T00:23:39.903Z,57.50
2023-11-30T00:27:13.657Z,62.00
2023-11-30T00:30:20.108Z,62.80
2023-11-30T00:33:36.578Z,64.00
2023-11-30T00:37:00.466Z,57.10
2023-11-30T00:40:42.845Z,57.10
2023-11-30T00:44:24.676Z,50.90
2023-11-30T00:48:08.056Z,65.40
2023-11-30T00:51:22.137Z,57.20
2023-11-30T00:54:58.598Z,59.20
2023-11-30T00:58:29.544Z,62.70
2023-11-30T01:02:02.720Z,55.40
2023-11-30T01:05:51.797Z,62.20
2023-11-30T01:09:32.759Z,59.60
2023-11-30T01:12:44.179Z,59.10
2023-11-30T01:15:41.460Z,59.80
2023-11-30T01:18:19.380Z,62.10
2023-11-30T01:20:58.422Z,64.40
2023-11-30T01:23:41.764Z,59.60
2023-11-30T01:26:30.100Z,56.40
2023-11-30T01:29:12.827Z,63.70
2023-11-30T01:31:50.438Z,63.50
2023-11-30T01:34:47.468Z,59.10
2023-11-30T01:38:17.587Z,60.00
2023-11-30T01:41:37.412Z,57.90
2023-11-30T01:44:28.438Z,60.30
2023-11-30T01:48:06.684Z,60.20
2023-11-30T01:51:08.470Z,56.20
2023-11-30T01:54:36.587Z,53.80
2023-11-30T01:57:32.073Z,57.30
2023-11-30T02:00:41.470Z,56.80
2023-11-30T02:03:37.955Z,55.40
2023-11-30T02:06:40.438Z,60.50
2023-11-30T02:09:32.916Z,60.50
2023-11-30T02:12:35.632Z,57.20
2023-11-30T02:15:41.159Z,61.60
2023-11-30T02:18:49.796Z,63.50
2023-11-30T02:22:04.272Z,58.90
2023-11-30T02:24:48.383Z,58.20
2023-11-30T02:27:46.310Z,65.30
2023-11-30T02:30:15.234Z,60.60
2023-11-30T02:36:08.912Z,63.90
2023-11-30T02:39:07.296Z,56.20
2023-11-30T02:42:07.666Z,62.50
2023-11-30T02:45:05.539Z,56.90
2023-11-30T02:48:03.778Z,57.80
2023-11-30T02:50:35.294Z,61.10
2023-11-30T02:53:04.303Z,60.60
2023-11-30T02:55:38.805Z,62.60
2023-11-30T02:59:16.233Z,53.60
2023-11-30T03:05:47.583Z,55.50
2023-11-30T03:08:50.236Z,53.70
2023-11-30T03:11:25.039Z,55.40
2023-11-30T03:14:23.899Z,59.60
2023-11-30T03:17:07.564Z,56.70
2023-11-30T03:20:17.842Z,57.60
2023-11-30T03:23:35.432Z,58.00
2023-11-30T03:26:49.914Z,57.70
2023-11-30T03:29:49.348Z,60.20
2023-11-30T03:32:49.037Z,56.00
2023-11-30T03:35:55.254Z,56.80
2023-11-30T03:39:44.993Z,56.10
2023-11-30T03:42:40.573Z,54.60
2023-11-30T03:45:43.774Z,50.80
2023-11-30T03:48:37.248Z,63.50
2023-11-30T03:51:31.632Z,60.10
2023-11-30T03:54:45.083Z,52.20
2023-11-30T03:58:06.422Z,57.70
2023-11-30T04:01:00.905Z,52.30
2023-11-30T04:04:27.324Z,55.90
2023-11-30T04:07:49.472Z,54.20
2023-11-30T04:11:05.626Z,51.30
2023-11-30T04:14:07.304Z,53.30
2023-11-30T04:17:28.244Z,52.60
2023-11-30T04:20:43.770Z,55.40
2023-11-30T04:23:47.130Z,53.40
2023-11-30T04:26:52.714Z,55.30
2023-11-30T04:29:45.123Z,58.40
2023-11-30T04:33:05.364Z,56.80
2023-11-30T04:35:54.130Z,57.70
2023-11-30T04:39:21.575Z,54.60
2023-11-30T04:42:50.478Z,57.60
2023-11-30T04:46:28.328Z,59.60
2023-11-30T04:49:21.766Z,55.10
2023-11-30T04:52:04.248Z,63.60
2023-11-30T04:54:52.830Z,57.30
2023-11-30T04:57:59.784Z,58.60
2023-11-30T05:00:52.530Z,61.70
2023-11-30T05:03:41.479Z,68.90
2023-11-30T05:06:31.307Z,72.50
2023-11-30T05:09:13.065Z,66.90
2023-11-30T05:12:05.619Z,70.30
2023-11-30T05:14:37.672Z,67.20
2023-11-30T05:17:17.925Z,64.60
2023-11-30T05:20:04.642Z,67.50
2023-11-30T05:22:52.110Z,69.10
2023-11-30T05:25:44.816Z,67.00
2023-11-30T05:28:35.731Z,65.80
2023-11-30T05:31:09.167Z,64.80
2023-11-30T05:33:45.613Z,61.70
2023-11-30T05:36:14.701Z,66.00
2023-11-30T05:39:09.016Z,62.90
2023-11-30T05:42:18.314Z,67.70
2023-11-30T05:45:24.071Z,68.50
2023-11-30T05:48:34.098Z,65.40
2023-11-30T05:51:34.833Z,64.30
2023-11-30T05:55:01.967Z,65.50
2023-11-30T05:58:23.264Z,67.40
2023-11-30T06:01:26.781Z,57.10
2023-11-30T06:04:27.834Z,65.20
2023-11-30T06:07:34.911Z,66.30
2023-11-30T06:10:33.159Z,61.80
2023-11-30T06:13:09.082Z,65.10
2023-11-30T06:16:09.082Z,64.10
2023-11-30T06:19:05.948Z,63.90
2023-11-30T06:22:15.694Z,69.10
2023-11-30T06:25:37.290Z,69.80
2023-11-30T06:29:17.664Z,74.90
2023-11-30T06:32:49.584Z,76.00
2023-11-30T06:36:13.512Z,70.20
2023-11-30T06:39:28.148Z,68.50
2023-11-30T06:42:45.318Z,66.10
2023-11-30T06:45:45.750Z,70.40
2023-11-30T06:48:26.799Z,72.50
2023-11-30T06:51:40.829Z,74.70
2023-11-30T06:55:03.420Z,77.10
2023-11-30T06:58:08.201Z,70.20
2023-11-30T07:01:27.131Z,73.60
2023-11-30T07:04:42.759Z,71.60
2023-11-30T07:07:37.898Z,72.50
2023-11-30T07:10:52.617Z,71.90
2023-11-30T07:14:04.888Z,70.70
2023-11-30T07:17:01.068Z,67.10
2023-11-30T07:20:03.117Z,68.60
2023-11-30T07:22:48.095Z,72.10
2023-11-30T07:25:47.649Z,71.80
2023-11-30T07:28:57.276Z,64.80
2023-11-30T07:32:05.650Z,74.00
2023-11-30T07:35:22.661Z,71.20
2023-11-30T07:38:10.974Z,75.20
2023-11-30T07:41:18.084Z,78.40
2023-11-30T07:44:04.724Z,75.20
2023-11-30T07:46:49.220Z,73.10
2023-11-30T07:50:07.972Z,71.80
2023-11-30T07:52:56.077Z,71.00
2023-11-30T07:56:11.710Z,73.00
2023-11-30T07:59:18.277Z,75.10
2023-11-30T08:02:05.543Z,82.80
2023-11-30T08:04:55.037Z,84.30
2023-11-30T08:07:33.290Z,82.20
2023-11-30T08:10:18.295Z,79.60
2023-11-30T08:13:02.333Z,79.60
2023-11-30T08:15:45.940Z,80.30
2023-11-30T08:19:08.810Z,82.90
2023-11-30T08:21:48.424Z,88.20
2023-11-30T08:24:58.352Z,80.40
2023-11-30T08:28:23.124Z,88.70
2023-11-30T08:31:47.509Z,83.80
2023-11-30T08:38:31.468Z,84.10
2023-11-30T08:41:37.470Z,80.10
2023-11-30T08:44:46.040Z,84.30
2023-11-30T08:47:51.157Z,94.90
2023-11-30T08:51:20.977Z,82.90
2023-11-30T08:54:55.722Z,77.40
2023-11-30T08:57:55.329Z,81.60
2023-11-30T09:01:40.056Z,80.30
2023-11-30T09:04:39.492Z,74.80
2023-11-30T09:08:20.499Z,81.70
2023-11-30T09:11:27.046Z,85.60
2023-11-30T09:14:35.320Z,81.50
2023-11-30T09:17:52.893Z,80.50
2023-11-30T09:20:58.069Z,84.00
2023-11-30T09:24:16.484Z,77.20
2023-11-30T09:27:17.720Z,80.50
2023-11-30T09:30:03.475Z,73.80
2023-11-30T09:33:08.426Z,81.10
2023-11-30T09:36:03.901Z,79.80
2023-11-30T09:38:53.453Z,85.50
2023-11-30T09:41:45.387Z,82.60
2023-11-30T09:44:48.614Z,82.00
2023-11-30T09:47:49.759Z,78.30
2023-11-30T09:50:55.982Z,82.00
2023-11-30T09:54:37.200Z,72.00
2023-11-30T09:58:11.958Z,78.80
2023-11-30T10:01:30.428Z,81.50
2023-11-30T10:04:30.780Z,80.20
2023-11-30T10:07:55.744Z,81.40
2023-11-30T10:11:52.397Z,79.40
2023-11-30T10:14:54.383Z,83.40
2023-11-30T10:17:58.134Z,86.40
2023-11-30T10:21:10.447Z,84.50
2023-11-30T10:24:40.052Z,85.10
2023-11-30T10:28:11.951Z,84.70
2023-11-30T10:31:04.105Z,87.90
2023-11-30T10:34:11.639Z,80.90
2023-11-30T10:37:39.208Z,88.90
2023-11-30T10:40:43.624Z,87.40
2023-11-30T10:44:15.248Z,90.60
2023-11-30T10:47:16.720Z,98.80
2023-11-30T10:50:33.538Z,95.30
2023-11-30T10:54:06.944Z,95.40
2023-11-30T10:56:54.518Z,95.10
2023-11-30T10:59:35.646Z,100.30
2023-11-30T11:02:20.783Z,95.80
2023-11-30T11:04:58.134Z,99.40
2023-11-30T11:07:36.294Z,100.40
2023-11-30T11:10:22.842Z,100.20
2023-11-30T11:13:13.008Z,98.10
2023-11-30T11:16:07.868Z,95.70
2023-11-30T11:19:23.114Z,95.70
2023-11-30T11:22:41.392Z,103.10
2023-11-30T11:26:10.655Z,104.00
2023-11-30T11:29:13.723Z,102.60
2023-11-30T11:32:20.718Z,94.60
2023-11-30T11:35:30.015Z,103.40
2023-11-30T11:38:06.705Z,94.50
2023-11-30T11:40:40.390Z,97.30
2023-11-30T11:43:15.226Z,95.40
2023-11-30T11:46:03.478Z,94.20
2023-11-30T11:48:37.778Z,99.20
2023-11-30T11:51:14.608Z,98.30
2023-11-30T11:53:52.295Z,94.70
2023-11-30T11:56:41.435Z,90.90
2023-11-30T11:59:40.042Z,92.80
2023-11-30T12:02:53.837Z,88.90
2023-11-30T12:05:57.960Z,87.90
2023-11-30T12:08:36.615Z,93.30
2023-11-30T12:11:31.085Z,94.40
2023-11-30T12:14:31.988Z,87.60
2023-11-30T12:17:11.974Z,84.20
2023-11-30T12:20:02.933Z,81.40
2023-11-30T12:22:40.001Z,87.20
2023-11-30T12:25:12.914Z,81.80
2023-11-30T12:27:42.216Z,80.70
2023-11-30T12:30:19.305Z,75.80
2023-11-30T12:33:00.725Z,81.40
2023-11-30T12:35:40.702Z,78.40
2023-11-30T12:38:32.064Z,76.60
2023-11-30T12:41:37.420Z,86.80
2023-11-30T12:44:18.048Z,89.80
2023-11-30T12:46:56.340Z,74.10
2023-11-30T12:49:39.525Z,74.20
2023-11-30T12:52:11.926Z,87.70
2023-11-30T12:54:52.738Z,85.60
2023-11-30T12:57:22.334Z,79.30
2023-11-30T12:59:51.021Z,73.00
2023-11-30T13:02:25.004Z,75.90
2023-11-30T13:05:03.498Z,78.30
2023-11-30T13:07:32.581Z,70.20
2023-11-30T13:10:02.024Z,66.30
2023-11-30T13:12:31.804Z,65.00
2023-11-30T13:17:39.633Z,65.20
2023-11-30T13:20:16.149Z,69.80
2023-11-30T13:22:51.147Z,71.50
2023-11-30T13:28:21.046Z,68.50
2023-11-30T13:31:02.963Z,66.10
2023-11-30T13:33:32.427Z,64.70
2023-11-30T13:36:03.773Z,68.40
2023-11-30T13:38:38.037Z,67.50
2023-11-30T13:41:14.030Z,63.60
2023-11-30T13:43:57.628Z,59.80
2023-11-30T13:46:39.235Z,66.90
2023-11-30T13:49:14.913Z,67.00
2023-11-30T13:51:46.043Z,62.60
2023-11-30T13:54:15.958Z,66.60
2023-11-30T13:56:47.020Z,59.50
2023-11-30T13:59:22.161Z,67.50
2023-11-30T14:01:53.659Z,72.60
2023-11-30T14:04:22.366Z,78.80
2023-11-30T14:06:51.396Z,80.40
2023-11-30T14:09:29.354Z,73.20
2023-11-30T14:12:05.715Z,70.10
2023-11-30T14:14:37.385Z,72.70
2023-11-30T14:17:14.781Z,70.70
2023-11-30T14:19:49.798Z,66.60
2023-11-30T14:22:24.653Z,72.10
2023-11-30T14:24:54.162Z,72.30
2023-11-30T14:27:27.801Z,71.40
2023-11-30T14:29:57.336Z,73.70
2023-11-30T14:35:07.859Z,70.90
2023-11-30T14:37:37.049Z,76.60
2023-11-30T14:40:09.874Z,68.90
2023-11-30T14:42:47.506Z,73.70
2023-11-30T14:45:19.527Z,66.60
2023-11-30T14:47:53.165Z,67.90
2023-11-30T14:50:22.459Z,68.40
2023-11-30T14:52:54.994Z,60.80
2023-11-30T14:55:33.780Z,66.60
2023-11-30T14:58:07.897Z,66.00
2023-11-30T15:00:45.129Z,61.60
2023-11-30T15:05:48.696Z,59.90
2023-11-30T15:08:23.823Z,55.40
2023-11-30T15:10:58.846Z,59.60
2023-11-30T15:13:36.096Z,50.10
2023-11-30T15:16:08.891Z,51.50
2023-11-30T15:18:53.971Z,49.00
2023-11-30T15:21:29.640Z,49.80
2023-11-30T15:24:01.812Z,51.40
2023-11-30T15:26:48.962Z,47.70
2023-11-30T15:29:20.308Z,45.40
2023-11-30T15:31:58.272Z,51.10
2023-11-30T15:34:34.792Z,52.70
2023-11-30T15:37:36.548Z,57.10
2023-11-30T15:40:22.311Z,67.40
2023-11-30T15:43:04.981Z,60.20
2023-11-30T15:45:52.336Z,63.90
2023-11-30T15:48:41.012Z,62.80
2023-11-30T15:51:19.891Z,62.00
2023-11-30T15:54:00.634Z,66.00
2023-11-30T15:56:44.967Z,64.00
2023-11-30T15:59:17.358Z,64.30
2023-11-30T16:02:11.844Z,63.40
2023-11-30T16:04:48.657Z,64.10
2023-11-30T16:07:53.514Z,73.20
2023-11-30T16:10:40.826Z,77.50
2023-11-30T16:13:34.326Z,68.40
2023-11-30T16:16:11.086Z,79.00
2023-11-30T16:19:02.650Z,73.90
2023-11-30T16:22:04.130Z,86.20
2023-11-30T16:24:55.528Z,73.90
2023-11-30T16:28:16.481Z,70.20
2023-11-30T16:31:14.385Z,69.10
2023-11-30T16:34:10.815Z,68.60
2023-11-30T16:37:23.128Z,70.70
2023-11-30T16:40:08.423Z,65.80
2023-11-30T16:43:12.053Z,70.80
2023-11-30T16:46:13.469Z,72.10
2023-11-30T16:48:58.762Z,65.90
2023-11-30T16:52:04.877Z,70.50
2023-11-30T16:54:48.198Z,64.10
2023-11-30T16:57:35.239Z,60.40
2023-11-30T17:00:10.839Z,69.50
2023-11-30T17:02:54.786Z,70.70
2023-11-30T17:05:59.275Z,70.40
2023-11-30T17:09:05.511Z,65.90
2023-11-30T17:12:03.739Z,67.60
2023-11-30T17:14:59.382Z,75.30
2023-11-30T17:17:58.413Z,69.70
2023-11-30T17:20:47.604Z,66.40
2023-11-30T17:23:28.433Z,69.50
2023-11-30T17:26:23.173Z,68.60
2023-11-30T17:29:01.290Z,73.70
2023-11-30T17:31:47.747Z,73.60
2023-11-30T17:34:30.821Z,69.50
2023-11-30T17:37:17.644Z,70.60
2023-11-30T17:40:19.539Z,67.60
2023-11-30T17:42:51.188Z,71.60
2023-11-30T17:45:54.932Z,66.00
2023-11-30T19:24:24.229Z,36.20
2023-11-30T19:27:19.648Z,33.30
2023-11-30T19:30:06.558Z,32.70
2023-11-30T19:33:18.090Z,32.40
2023-11-30T19:36:01.865Z,30.20
2023-11-30T19:39:30.059Z,28.90
2023-11-30T19:42:38.940Z,28.70
2023-11-30T19:45:32.440Z,29.10
2023-11-30T19:48:45.354Z,26.50
2023-11-30T19:51:40.100Z,24.30
2023-11-30T19:54:33.489Z,28.30
2023-11-30T19:57:35.953Z,21.90
2023-11-30T20:00:14.259Z,24.10
2023-11-30T20:02:54.997Z,29.30
2023-11-30T20:05:40.854Z,23.20
2023-11-30T20:08:23.844Z,21.50
2023-11-30T20:10:56.275Z,19.50
2023-11-30T20:13:47.967Z,18.60
2023-11-30T20:17:00.843Z,20.90
2023-11-30T20:19:51.314Z,23.70
2023-11-30T20:23:11.152Z,19.60
2023-11-30T20:26:19.931Z,24.10
2023-11-30T20:29:06.767Z,23.30
2023-11-30T20:32:13.000Z,20.20
2023-11-30T20:35:32.740Z,24.00
2023-11-30T20:38:52.007Z,21.50
2023-11-30T20:41:48.934Z,22.10
2023-11-30T20:44:31.155Z,25.70
2023-11-30T20:47:34.587Z,26.10
2023-11-30T20:50:39.389Z,25.80
2023-11-30T20:53:15.874Z,27.70
2023-11-30T20:56:05.816Z,25.70
2023-11-30T20:59:05.295Z,26.60
2023-11-30T21:05:20.249Z,22.70
2023-11-30T21:08:41.173Z,21.90
2023-11-30T21:11:34.361Z,19.60
2023-11-30T21:14:28.189Z,24.20
2023-11-30T21:17:38.052Z,25.30
2023-11-30T21:21:04.804Z,20.80
2023-11-30T21:24:39.459Z,22.60
2023-11-30T21:27:33.165Z,20.60
2023-11-30T21:30:28.340Z,18.00
2023-11-30T21:33:18.485Z,20.10
2023-11-30T21:36:02.687Z,18.30
2023-11-30T21:38:46.740Z,20.30
2023-11-30T21:41:48.613Z,20.10
2023-11-30T21:44:38.749Z,20.00
2023-11-30T21:47:29.670Z,19.50
2023-11-30T21:50:45.673Z,20.40
2023-11-30T21:53:38.517Z,21.60
2023-11-30T21:56:24.414Z,21.20
2023-11-30T21:59:10.876Z,19.10
2023-11-30T22:01:43.049Z,19.40
2023-11-30T22:04:50.859Z,26.10
2023-11-30T22:07:48.613Z,21.30
2023-11-30T22:10:54.464Z,20.60
2023-11-30T22:14:11.473Z,22.40
2023-11-30T22:17:25.311Z,21.50
2023-11-30T22:20:36.388Z,22.20
2023-11-30T22:23:35.855Z,23.30
2023-11-30T22:26:28.960Z,21.90
2023-11-30T22:29:54.894Z,21.50
2023-11-30T22:32:53.863Z,24.60
2023-11-30T22:35:34.251Z,23.50
2023-11-30T22:38:46.389Z,21.30
2023-11-30T22:42:08.067Z,25.30
2023-11-30T22:45:05.688Z,21.70
2023-11-30T22:48:01.058Z,23.80
2023-11-30T22:50:33.334Z,22.60
2023-11-30T22:57:21.183Z,23.20
2023-11-30T23:00:56.970Z,17.20
2023-11-30T23:03:46.740Z,19.50
2023-11-30T23:07:02.337Z,17.60
2023-11-30T23:10:21.451Z,22.10
2023-11-30T23:12:56.034Z,19.00
2023-11-30T23:15:44.175Z,23.40
2023-11-30T23:18:38.454Z,19.70
2023-11-30T23:21:38.780Z,19.40
2023-11-30T23:24:39.677Z,22.10
2023-11-30T23:27:22.087Z,20.20
2023-11-30T23:30:31.042Z,18.60
2023-11-30T23:33:39.882Z,19.40
2023-11-30T23:36:28.831Z,16.80
2023-11-30T23:39:17.124Z,22.60
2023-11-30T23:41:58.550Z,21.00
2023-11-30T23:45:12.031Z,19.90
2023-11-30T23:48:10.109Z,18.40
2023-11-30T23:51:00.658Z,17.80
2023-11-30T23:53:57.176Z,15.40
2023-11-30T23:56:33.490Z,18.50
2023-11-30T23:59:24.465Z,18.70
